Terminal Aerodrome Forecast
Issued by NWS

Home | Current Version | Previous Version | Text Only | Print | Product List | Glossary On
Versions: 1 2 3 4 5 6 7 8 9 10 11 12 13 14 15 16 17 18 19
000
FTUS45 KFGZ 252300
TAFSEZ
TAF
KSEZ 252320Z 2600/2624 26010G15KT P6SM SCT100 BKN200
      TEMPO 2600/2604 VRB15G28KT 6SM -TSRA BKN090CB
     FM260400 VRB06KT P6SM SCT100 BKN200 PROB30 2619/2624 6SM -TSRA
      BKN090CB=

USA.gov is the U.S. government's official web portal to all federal, state and local government web resources and services.